Time;durP1;ratioP1;P1;durP2;ratioP2;P2;SDS_P1;SDS_P2;PMS_P1;PMS_P2;Temp;Humidity;BMP_temperature;BMP_pressure;BME280_temperature;BME280_humidity;BME280_pressure;Samples;Min_cycle;Max_cycle;Signal;HPM_P1;HPM_P2
2023/08/03 00:01:35;;;;;;;6.20;1.50;;;;;;;16.44;100.00;96626.50;4189385;28;20495;-73
2023/08/03 00:03:35;;;;;;;3.88;1.60;;;;;;;16.45;100.00;96630.84;4171197;28;20045;-73
2023/08/03 00:05:35;;;;;;;4.28;1.60;;;;;;;16.48;100.00;96636.31;4189110;28;20579;-73
2023/08/03 00:07:36;;;;;;;8.02;1.67;;;;;;;16.44;100.00;96638.47;4189402;28;20049;-73
2023/08/03 00:09:36;;;;;;;7.03;1.80;;;;;;;16.45;100.00;96633.66;4189441;28;20122;-73
2023/08/03 00:11:37;;;;;;;3.42;1.42;;;;;;;16.39;100.00;96643.88;4189572;28;20389;-73
2023/08/03 00:13:38;;;;;;;3.28;1.13;;;;;;;16.31;100.00;96637.81;4188335;28;20044;-73
2023/08/03 00:15:38;;;;;;;6.68;1.80;;;;;;;16.32;100.00;96646.97;4189340;28;20099;-73
2023/08/03 00:17:38;;;;;;;6.15;1.60;;;;;;;16.36;100.00;96645.56;4189301;28;20515;-73
2023/08/03 00:19:39;;;;;;;6.97;1.83;;;;;;;16.39;100.00;96641.09;4189023;28;20082;-73
2023/08/03 00:21:39;;;;;;;5.00;1.23;;;;;;;16.39;100.00;96632.72;4188820;28;20036;-73
2023/08/03 00:23:39;;;;;;;6.40;1.45;;;;;;;16.44;100.00;96641.25;4187860;28;20064;-73
2023/08/03 00:25:39;;;;;;;8.13;1.90;;;;;;;16.49;100.00;96635.06;4189313;28;20083;-73
2023/08/03 00:27:40;;;;;;;5.53;1.60;;;;;;;16.44;100.00;96630.09;4188972;28;20119;-73
2023/08/03 00:29:40;;;;;;;4.80;1.70;;;;;;;16.37;100.00;96624.78;4188534;28;20474;-73
2023/08/03 00:31:40;;;;;;;4.22;1.50;;;;;;;16.37;100.00;96627.59;4188736;28;20492;-73
2023/08/03 00:33:41;;;;;;;5.55;1.73;;;;;;;16.41;100.00;96635.81;4188570;28;21255;-73
2023/08/03 00:35:41;;;;;;;7.95;1.80;;;;;;;16.36;100.00;96625.25;4188918;28;20076;-73
2023/08/03 00:37:41;;;;;;;5.30;1.50;;;;;;;16.43;100.00;96636.13;4189368;28;20131;-73
2023/08/03 00:39:42;;;;;;;4.55;1.83;;;;;;;16.40;100.00;96643.41;4189236;28;20056;-73
2023/08/03 00:41:42;;;;;;;5.80;1.60;;;;;;;16.43;100.00;96633.34;4188786;28;20086;-73
2023/08/03 00:43:42;;;;;;;4.03;1.48;;;;;;;16.44;100.00;96637.69;4188273;28;20040;-73
2023/08/03 00:45:43;;;;;;;8.20;1.60;;;;;;;16.35;100.00;96634.88;4188931;28;20076;-73
2023/08/03 00:47:43;;;;;;;5.18;1.92;;;;;;;16.29;100.00;96627.09;4188530;28;20044;-73
2023/08/03 00:49:44;;;;;;;7.22;1.38;;;;;;;16.28;100.00;96636.69;4189379;28;20044;-73
2023/08/03 00:51:44;;;;;;;5.22;1.48;;;;;;;16.32;100.00;96630.22;4189029;28;20053;-73
2023/08/03 00:53:46;;;;;;;7.40;1.55;;;;;;;16.38;100.00;96622.78;4188670;28;20377;-73
2023/08/03 00:55:46;;;;;;;6.22;2.25;;;;;;;16.39;100.00;96618.78;4188930;28;20090;-73
2023/08/03 00:57:46;;;;;;;6.78;1.50;;;;;;;16.38;100.00;96619.97;4188936;28;20049;-73
2023/08/03 00:59:46;;;;;;;3.97;1.60;;;;;;;16.39;100.00;96622.34;4188663;28;20079;-73
2023/08/03 01:01:47;;;;;;;3.42;1.45;;;;;;;16.39;100.00;96618.78;4188903;28;20045;-73
2023/08/03 01:03:47;;;;;;;4.95;1.52;;;;;;;16.39;100.00;96618.78;4187903;28;20419;-73
2023/08/03 01:05:47;;;;;;;5.30;1.58;;;;;;;16.43;100.00;96611.78;4188970;28;20044;-73
2023/08/03 01:07:48;;;;;;;3.55;1.48;;;;;;;16.43;100.00;96622.94;4188252;28;20412;-73
2023/08/03 01:09:48;;;;;;;4.70;1.52;;;;;;;16.40;100.00;96612.72;4189419;28;20118;-73
2023/08/03 01:11:49;;;;;;;4.50;1.40;;;;;;;16.41;100.00;96619.06;4188765;28;20043;-73
2023/08/03 01:13:49;;;;;;;4.28;1.50;;;;;;;16.40;100.00;96611.94;4187902;28;20119;-73
2023/08/03 01:15:50;;;;;;;7.07;1.45;;;;;;;16.43;100.00;96624.97;4188551;28;20480;-73
2023/08/03 01:17:50;;;;;;;5.70;1.30;;;;;;;16.43;100.00;96620.16;4188065;28;20214;-73
2023/08/03 01:19:51;;;;;;;4.30;1.65;;;;;;;16.43;100.00;96613.81;4189674;28;20036;-73
2023/08/03 01:21:52;;;;;;;3.25;1.60;;;;;;;16.43;100.00;96620.16;4189298;28;20091;-73
2023/08/03 01:23:52;;;;;;;7.10;1.80;;;;;;;16.44;100.00;96613.34;4188443;28;20040;-73
2023/08/03 01:25:53;;;;;;;4.78;1.40;;;;;;;16.47;100.00;96617.25;4189092;28;20416;-73
2023/08/03 01:27:53;;;;;;;6.93;1.90;;;;;;;16.50;100.00;96605.13;4188346;28;20115;-73
2023/08/03 01:29:53;;;;;;;4.93;1.52;;;;;;;16.46;100.00;96616.44;4188455;28;20395;-73
2023/08/03 01:31:56;;;;;;;5.63;1.40;;;;;;;16.43;100.00;96611.78;4189163;28;20131;-73
2023/08/03 01:33:57;;;;;;;3.30;1.50;;;;;;;16.42;100.00;96601.88;4188548;28;20044;-73
2023/08/03 01:35:58;;;;;;;4.07;1.45;;;;;;;16.37;100.00;96602.47;4188559;28;20133;-73
2023/08/03 01:37:58;;;;;;;3.78;1.52;;;;;;;16.40;100.00;96609.94;4188679;28;20056;-73
2023/08/03 01:39:58;;;;;;;8.63;2.05;;;;;;;16.40;100.00;96595.19;4190374;28;20051;-73
2023/08/03 01:41:59;;;;;;;5.57;1.50;;;;;;;16.37;100.00;96605.25;4191676;28;20105;-73
2023/08/03 01:44:17;;;;;;;5.68;2.20;;;;;;;16.34;100.00;96602.63;4191322;28;20460;-73
2023/08/03 01:46:17;;;;;;;6.18;2.08;;;;;;;16.35;100.00;96599.38;4190974;28;20091;-73
2023/08/03 01:48:18;;;;;;;3.63;1.50;;;;;;;16.35;100.00;96609.75;4191293;28;20037;-73
2023/08/03 01:50:18;;;;;;;6.03;1.60;;;;;;;16.35;100.00;96620.91;4191548;28;20072;-73
2023/08/03 01:52:18;;;;;;;4.75;1.70;;;;;;;16.32;100.00;96608.66;4191104;28;20032;-73
2023/08/03 01:54:19;;;;;;;4.22;1.77;;;;;;;16.33;100.00;96609.44;4190840;28;20107;-73
2023/08/03 01:56:19;;;;;;;8.02;1.73;;;;;;;16.34;100.00;96595.03;4191792;28;20399;-73
2023/08/03 01:58:19;;;;;;;6.43;1.95;;;;;;;16.34;100.00;96611.00;4191296;28;20044;-73
2023/08/03 02:00:20;;;;;;;6.30;1.80;;;;;;;16.35;100.00;96602.16;4190992;28;20067;-73
2023/08/03 02:02:20;;;;;;;4.10;2.30;;;;;;;16.34;100.00;96602.63;4191756;28;20127;-73
2023/08/03 02:04:20;;;;;;;4.60;1.45;;;;;;;16.32;100.00;96597.50;4191143;28;20052;-73
2023/08/03 02:06:21;;;;;;;5.05;1.50;;;;;;;16.31;100.00;96595.19;4191551;28;20252;-73
2023/08/03 02:08:21;;;;;;;8.00;1.98;;;;;;;16.33;100.00;96585.09;4191246;28;20570;-73
2023/08/03 02:10:23;;;;;;;6.00;1.95;;;;;;;16.31;100.00;96579.22;4191370;28;20051;-73
2023/08/03 02:12:24;;;;;;;7.65;1.90;;;;;;;16.30;100.00;96597.16;4191141;28;20496;-73
2023/08/03 02:14:24;;;;;;;7.03;1.80;;;;;;;16.27;100.00;96570.97;4191091;28;20041;-73
2023/08/03 02:16:24;;;;;;;4.00;1.70;;;;;;;16.26;100.00;96588.97;4191465;28;20048;-73
2023/08/03 02:18:28;;;;;;;4.60;1.40;;;;;;;16.31;100.00;96582.00;4191343;28;20495;-73
2023/08/03 02:20:29;;;;;;;8.55;1.75;;;;;;;16.26;100.00;96583.38;4191071;28;20039;-73
2023/08/03 02:22:29;;;;;;;4.15;1.67;;;;;;;16.25;100.00;96589.44;4190852;28;20099;-73
2023/08/03 02:24:29;;;;;;;5.25;1.50;;;;;;;16.28;100.00;96585.69;4191175;28;20119;-73
2023/08/03 02:26:29;;;;;;;4.53;1.55;;;;;;;16.25;100.00;96593.00;4191187;28;20048;-73
2023/08/03 02:28:30;;;;;;;2.70;1.25;;;;;;;16.26;100.00;96594.53;4190971;28;20041;-73
2023/08/03 02:30:31;;;;;;;6.18;1.60;;;;;;;16.22;100.00;96587.56;4190630;28;20126;-73
2023/08/03 02:32:31;;;;;;;4.25;1.50;;;;;;;16.17;100.00;96596.53;4190588;28;20480;-73
2023/08/03 02:34:31;;;;;;;4.53;1.55;;;;;;;16.24;100.00;96597.03;4191119;28;20048;-73
2023/08/03 02:36:32;;;;;;;4.63;1.52;;;;;;;16.29;100.00;96607.56;4190670;28;20143;-73
2023/08/03 02:38:32;;;;;;;7.03;1.70;;;;;;;16.32;100.00;96605.09;4191045;28;20043;-73
2023/08/03 02:40:32;;;;;;;6.63;1.40;;;;;;;16.36;100.00;96611.31;4191085;28;20139;-73
2023/08/03 02:42:32;;;;;;;4.18;1.50;;;;;;;16.28;100.00;96608.03;4190370;28;20497;-73
2023/08/03 02:44:33;;;;;;;4.00;1.83;;;;;;;16.27;100.00;96603.69;4190826;28;20036;-73
2023/08/03 02:46:33;;;;;;;6.18;1.83;;;;;;;16.27;100.00;96595.31;4190334;28;20408;-73
2023/08/03 02:48:33;;;;;;;6.63;1.45;;;;;;;16.33;100.00;96606.66;4190698;28;20400;-73
2023/08/03 02:50:34;;;;;;;5.30;1.50;;;;;;;16.33;100.00;96610.22;4190881;28;20043;-73
2023/08/03 02:52:34;;;;;;;5.13;1.90;;;;;;;16.31;100.00;96617.50;4190150;28;20060;-73
2023/08/03 02:54:34;;;;;;;2.85;1.27;;;;;;;16.28;100.00;96614.38;4189779;28;20036;-73
2023/08/03 02:56:35;;;;;;;4.65;1.85;;;;;;;16.26;100.00;96622.44;4190556;28;20478;-73
2023/08/03 02:58:35;;;;;;;5.20;1.70;;;;;;;16.24;100.00;96599.81;4190275;28;20483;-73
2023/08/03 03:00:35;;;;;;;3.63;1.40;;;;;;;16.26;100.00;96605.69;4190409;28;20041;-73
2023/08/03 03:02:38;;;;;;;4.72;1.30;;;;;;;16.31;100.00;96584.03;4189712;28;20398;-73
2023/08/03 03:04:39;;;;;;;6.97;1.15;;;;;;;16.32;100.00;96599.53;4190862;28;20054;-73
2023/08/03 03:06:39;;;;;;;5.07;1.67;;;;;;;16.25;100.00;96597.78;4190243;28;20120;-73
2023/08/03 03:08:39;;;;;;;6.85;1.75;;;;;;;16.27;100.00;96598.09;4189965;28;20131;-73
2023/08/03 03:10:40;;;;;;;4.70;1.38;;;;;;;16.22;100.00;96595.94;4190767;28;20087;-73
2023/08/03 03:12:40;;;;;;;5.30;1.45;;;;;;;16.21;100.00;96597.94;4189145;28;20044;-73
2023/08/03 03:14:40;;;;;;;7.45;1.65;;;;;;;16.14;100.00;96603.03;4190617;28;20055;-73
2023/08/03 03:16:41;;;;;;;4.78;1.85;;;;;;;16.12;100.00;96600.69;4190114;28;20476;-73
2023/08/03 03:18:41;;;;;;;5.05;1.58;;;;;;;16.07;100.00;96578.22;4190099;28;20062;-73
2023/08/03 03:20:41;;;;;;;4.35;1.33;;;;;;;16.08;100.00;96597.28;4190293;28;20116;-73
2023/08/03 03:22:42;;;;;;;4.10;1.35;;;;;;;16.11;100.00;96604.72;4189366;28;20076;-73
2023/08/03 03:24:42;;;;;;;4.47;1.58;;;;;;;16.07;100.00;96601.31;4190216;28;20068;-73
2023/08/03 03:26:42;;;;;;;3.60;1.38;;;;;;;16.03;100.00;96597.88;4189808;28;20059;-73
2023/08/03 03:28:43;;;;;;;4.68;1.35;;;;;;;16.01;100.00;96592.00;4188623;28;20392;-73
2023/08/03 03:30:43;;;;;;;3.25;1.30;;;;;;;16.04;100.00;96599.44;4189514;28;20037;-73
2023/08/03 03:32:44;;;;;;;5.63;1.80;;;;;;;16.13;100.00;96609.84;4190255;28;20040;-73
2023/08/03 03:34:44;;;;;;;9.60;1.85;;;;;;;16.09;100.00;96606.44;4190128;28;20041;-73
2023/08/03 03:36:45;;;;;;;3.90;1.83;;;;;;;16.08;100.00;96602.09;4190927;28;20045;-73
2023/08/03 03:38:45;;;;;;;3.83;1.40;;;;;;;16.06;100.00;96605.34;4189459;28;20044;-73
2023/08/03 03:40:45;;;;;;;4.22;1.23;;;;;;;16.02;100.00;96613.84;4188486;28;20109;-73
2023/08/03 03:42:46;;;;;;;1.80;1.08;;;;;;;16.04;100.00;96615.38;4188013;28;20044;-73
2023/08/03 03:44:46;;;;;;;4.30;1.40;;;;;;;16.06;100.00;96608.13;4190618;28;20182;-73
2023/08/03 03:46:46;;;;;;;4.32;1.40;;;;;;;16.13;100.00;96610.59;4189416;28;20037;-73
2023/08/03 03:48:47;;;;;;;4.97;1.20;;;;;;;16.18;100.00;96598.84;4188664;28;20127;-73
2023/08/03 03:50:47;;;;;;;2.60;1.00;;;;;;;16.19;100.00;96606.00;4188533;28;20143;-73
2023/08/03 03:52:47;;;;;;;4.20;1.10;;;;;;;16.14;100.00;96603.81;4188888;28;20678;-73
2023/08/03 03:54:47;;;;;;;3.80;0.98;;;;;;;16.13;100.00;96609.84;4190729;28;20496;-73
2023/08/03 03:56:48;;;;;;;2.95;1.10;;;;;;;16.06;100.00;96596.97;4189653;28;20054;-73
2023/08/03 03:58:48;;;;;;;8.77;2.17;;;;;;;16.06;100.00;96604.56;4189614;28;20040;-73
2023/08/03 04:00:48;;;;;;;1.58;0.88;;;;;;;16.11;100.00;96615.09;4188538;28;20621;-73
2023/08/03 04:02:49;;;;;;;2.97;1.25;;;;;;;16.07;100.00;96608.91;4188316;28;20052;-73
2023/08/03 04:04:49;;;;;;;3.38;1.67;;;;;;;16.06;100.00;96602.56;4191200;28;20048;-73
2023/08/03 04:06:49;;;;;;;2.15;1.00;;;;;;;16.12;100.00;96619.44;4189398;28;20441;-73
2023/08/03 04:08:50;;;;;;;4.43;1.20;;;;;;;16.12;100.00;96617.44;4188776;28;20084;-73
2023/08/03 04:10:50;;;;;;;5.75;1.63;;;;;;;16.10;100.00;96625.50;4187170;28;20135;-73
2023/08/03 04:12:50;;;;;;;4.97;0.95;;;;;;;16.11;100.00;96626.25;4188215;28;20488;-73
2023/08/03 04:14:51;;;;;;;2.90;1.00;;;;;;;16.11;100.00;96620.69;4189790;28;20047;-73
2023/08/03 04:16:52;;;;;;;2.40;0.80;;;;;;;16.12;100.00;96630.59;4190395;28;20129;-73
2023/08/03 04:18:52;;;;;;;4.60;1.30;;;;;;;16.12;100.00;96636.97;4188148;28;20074;-73
2023/08/03 04:20:53;;;;;;;3.40;1.27;;;;;;;16.14;100.00;96633.72;4188801;28;20135;-73
2023/08/03 04:22:54;;;;;;;1.40;0.80;;;;;;;16.17;100.00;96646.75;4188059;28;20047;-73
2023/08/03 04:24:54;;;;;;;2.25;0.80;;;;;;;16.22;100.00;96632.22;4188841;28;20048;-73
2023/08/03 04:26:54;;;;;;;1.45;0.70;;;;;;;16.18;100.00;96654.66;4188590;28;20059;-73
2023/08/03 04:28:55;;;;;;;1.23;0.70;;;;;;;16.16;100.00;96654.34;4187848;28;20035;-73
2023/08/03 04:30:55;;;;;;;2.83;0.70;;;;;;;16.13;100.00;96651.69;4169455;28;20536;-73
2023/08/03 04:32:55;;;;;;;0.82;0.70;;;;;;;16.12;100.00;96644.56;4187053;28;20032;-73
2023/08/03 04:34:55;;;;;;;1.70;0.57;;;;;;;16.13;100.00;96646.09;4186570;28;20669;-73
2023/08/03 04:36:56;;;;;;;2.45;1.15;;;;;;;16.14;100.00;96637.28;4188994;28;20032;-73
2023/08/03 04:38:56;;;;;;;4.60;0.90;;;;;;;16.20;100.00;96643.81;4187814;28;20040;-73
2023/08/03 04:40:56;;;;;;;8.50;1.02;;;;;;;16.23;100.00;96647.72;4188438;28;20048;-73
2023/08/03 04:42:57;;;;;;;4.20;1.00;;;;;;;16.23;100.00;96648.50;4187430;28;20044;-73
2023/08/03 04:44:57;;;;;;;2.03;0.90;;;;;;;16.25;100.00;96651.59;4185766;28;20041;-73
2023/08/03 04:46:57;;;;;;;3.92;1.10;;;;;;;16.24;100.00;96652.81;4187762;28;20068;-73
2023/08/03 04:48:58;;;;;;;1.88;0.50;;;;;;;16.27;100.00;96673.44;4188795;28;20036;-73
2023/08/03 04:50:59;;;;;;;2.33;0.60;;;;;;;16.26;100.00;96655.94;4188309;28;20623;-73
2023/08/03 04:52:59;;;;;;;1.83;0.80;;;;;;;16.27;100.00;96654.69;4187709;28;20169;-73
2023/08/03 04:54:59;;;;;;;2.53;0.70;;;;;;;16.32;100.00;96653.31;4187487;28;20319;-73
2023/08/03 04:56:59;;;;;;;2.05;0.73;;;;;;;16.34;100.00;96653.63;4119820;28;20049;-73
2023/08/03 04:59:00;;;;;;;2.92;0.80;;;;;;;16.31;100.00;96662.94;4179726;28;20064;-73
2023/08/03 05:01:00;;;;;;;2.30;0.80;;;;;;;16.32;100.00;96661.69;4189143;28;20549;-73
2023/08/03 05:03:00;;;;;;;2.80;0.75;;;;;;;16.36;100.00;96664.31;4188671;28;20352;-73
2023/08/03 05:05:01;;;;;;;1.83;0.70;;;;;;;16.38;100.00;96664.63;4187685;28;20076;-73
2023/08/03 05:07:01;;;;;;;1.63;0.82;;;;;;;16.35;100.00;96671.16;4188489;28;20120;-73
2023/08/03 05:09:01;;;;;;;1.67;0.70;;;;;;;16.41;100.00;96677.69;4188973;28;20263;-73
2023/08/03 05:11:02;;;;;;;0.95;0.60;;;;;;;16.43;100.00;96669.63;4188540;28;20044;-73
2023/08/03 05:13:02;;;;;;;2.78;0.70;;;;;;;16.50;100.00;96684.06;4188121;28;20518;-73
2023/08/03 05:15:03;;;;;;;2.65;0.60;;;;;;;16.56;100.00;96695.41;4190252;28;20182;-73
2023/08/03 05:17:04;;;;;;;1.58;0.65;;;;;;;16.56;100.00;96698.22;4191151;28;20515;-73
2023/08/03 05:19:04;;;;;;;2.70;0.95;;;;;;;16.56;100.00;96703.78;4189911;28;20056;-73
2023/08/03 05:21:04;;;;;;;2.40;1.02;;;;;;;16.53;100.00;96702.69;4191552;28;20053;-73
2023/08/03 05:23:07;;;;;;;3.42;0.88;;;;;;;16.53;100.00;96713.06;4191821;28;20637;-73
2023/08/03 05:25:09;;;;;;;5.40;1.13;;;;;;;16.54;100.00;96701.44;4191277;28;20044;-73
2023/08/03 05:27:12;;;;;;;2.03;0.80;;;;;;;16.53;100.00;96697.09;4191279;28;20048;-73
2023/08/03 05:29:12;;;;;;;1.80;0.70;;;;;;;16.54;100.00;96709.03;4191570;28;20510;-73
2023/08/03 05:31:13;;;;;;;1.02;0.63;;;;;;;16.58;100.00;96699.28;4190111;28;20044;-73
2023/08/03 05:33:13;;;;;;;3.95;0.90;;;;;;;16.53;100.00;96693.53;4188983;28;20051;-73
2023/08/03 05:35:14;;;;;;;2.65;0.75;;;;;;;16.61;100.00;96705.97;4190372;28;20130;-73
2023/08/03 05:37:15;;;;;;;4.07;0.85;;;;;;;16.69;100.00;96710.03;4190901;28;20074;-73
2023/08/03 05:39:16;;;;;;;1.65;0.68;;;;;;;16.72;100.00;96714.72;4190435;28;20472;-73
2023/08/03 05:41:21;;;;;;;2.47;0.70;;;;;;;16.77;100.00;96714.09;4189443;28;20052;-73
2023/08/03 05:43:27;;;;;;;2.58;0.80;;;;;;;16.81;100.00;96719.56;4188697;28;20053;-73
2023/08/03 05:45:42;;;;;;;1.85;0.70;;;;;;;16.85;100.00;96720.94;4189493;28;20044;-73
2023/08/03 05:47:42;;;;;;;3.03;1.05;;;;;;;16.83;100.00;96717.84;4190848;28;20123;-73
2023/08/03 05:49:43;;;;;;;3.08;0.80;;;;;;;16.80;100.00;96729.19;4190210;28;20087;-73
2023/08/03 05:51:43;;;;;;;1.45;0.70;;;;;;;16.72;100.00;96719.53;4191716;28;20574;-73
2023/08/03 05:53:43;;;;;;;8.77;0.80;;;;;;;16.67;100.00;96722.91;4190640;28;20047;-73
2023/08/03 05:55:45;;;;;;;1.67;0.73;;;;;;;16.81;100.00;96733.53;4190331;28;20048;-73
2023/08/03 05:57:45;;;;;;;3.50;0.68;;;;;;;16.87;100.00;96739.25;4191413;28;20036;-73
2023/08/03 05:59:46;;;;;;;3.53;0.82;;;;;;;16.96;100.00;96726.09;4191526;28;20395;-73
2023/08/03 06:01:48;;;;;;;1.08;0.68;;;;;;;17.04;100.00;96723.78;4191233;28;20407;-73
2023/08/03 06:03:53;;;;;;;2.72;0.68;;;;;;;17.05;100.00;96712.16;4190982;28;20459;-73
2023/08/03 06:05:53;;;;;;;1.88;0.82;;;;;;;17.07;100.00;96712.47;4191254;28;20043;-73
2023/08/03 06:07:54;;;;;;;1.92;0.80;;;;;;;17.04;100.00;96713.38;4191013;28;20040;-73
2023/08/03 06:09:54;;;;;;;6.90;0.75;;;;;;;17.15;100.00;96735.28;4191803;28;20040;-73
2023/08/03 06:11:54;;;;;;;1.23;0.70;;;;;;;17.10;100.00;96725.50;4190914;28;20440;-73
2023/08/03 06:13:55;;;;;;;2.15;0.82;;;;;;;17.19;100.00;96733.09;4190741;28;20068;-73
2023/08/03 06:15:55;;;;;;;1.75;0.60;;;;;;;17.06;100.00;96741.66;4191230;28;20047;-73
2023/08/03 06:18:03;;;;;;;1.48;0.80;;;;;;;17.00;100.00;96720.34;4191013;28;20053;-73
2023/08/03 06:20:11;;;;;;;1.85;0.60;;;;;;;17.01;100.00;96736.66;4190939;28;20072;-73
2023/08/03 06:22:20;;;;;;;1.85;0.60;;;;;;;17.04;100.00;96746.91;4190734;28;20025;-73
2023/08/03 06:24:21;;;;;;;4.72;0.93;;;;;;;17.01;100.00;96735.88;4190754;28;20040;-73
2023/08/03 06:26:22;;;;;;;1.58;0.70;;;;;;;17.15;100.00;96745.69;4190427;28;20105;-73
2023/08/03 06:28:23;;;;;;;2.83;0.70;;;;;;;17.25;100.00;96759.19;4190211;28;20032;-73
2023/08/03 06:30:23;;;;;;;1.77;0.93;;;;;;;17.21;100.00;96741.81;4191553;28;20064;-73
2023/08/03 06:32:32;;;;;;;1.52;0.60;;;;;;;17.31;100.00;96746.19;4190437;28;20498;-73
2023/08/03 06:34:33;;;;;;;4.30;0.75;;;;;;;17.34;100.00;96747.25;4190976;28;20486;-73
2023/08/03 06:36:35;;;;;;;0.82;0.50;;;;;;;17.31;100.00;96748.97;4190053;28;20033;-73
2023/08/03 06:38:36;;;;;;;;;;;;;;;17.34;100.00;96758.44;4190676;28;20507;-73
2023/08/03 06:40:36;;;;;;;2.58;0.65;;;;;;;17.45;100.00;96760.75;4191295;28;20180;-72
2023/08/03 06:42:39;;;;;;;0.95;0.60;;;;;;;17.49;100.00;96758.59;4189838;28;20040;-73
2023/08/03 06:44:40;;;;;;;1.92;0.77;;;;;;;17.51;100.00;96762.47;4190216;28;20380;-73
2023/08/03 06:46:40;;;;;;;3.33;0.65;;;;;;;17.47;100.00;96769.47;4190396;28;20201;-73
2023/08/03 06:48:41;;;;;;;2.38;1.05;;;;;;;17.53;100.00;96779.56;4190696;28;20388;-72
2023/08/03 06:50:41;;;;;;;1.98;0.77;;;;;;;17.64;100.00;96781.91;4190419;28;20048;-73
2023/08/03 06:52:42;;;;;;;4.00;0.70;;;;;;;17.57;100.00;96765.44;4189839;28;20488;-73
2023/08/03 06:54:42;;;;;;;1.13;0.60;;;;;;;17.53;100.00;96776.75;4190879;28;20067;-73
2023/08/03 06:56:43;;;;;;;1.85;0.65;;;;;;;17.44;100.00;96779.56;4190480;28;20514;-73
2023/08/03 06:58:43;;;;;;;2.78;0.80;;;;;;;17.37;100.00;96783.44;4190485;28;20363;-72
2023/08/03 07:00:44;;;;;;;2.15;0.60;;;;;;;17.34;100.00;96775.22;4190441;28;20049;-73
2023/08/03 07:02:46;;;;;;;1.85;0.60;;;;;;;17.39;100.00;96785.78;4189217;28;20178;-72
2023/08/03 07:04:47;;;;;;;3.22;0.95;;;;;;;17.51;100.00;96786.88;4190313;28;20043;-73
2023/08/03 07:06:47;;;;;;;3.38;0.88;;;;;;;17.52;100.00;96785.63;4190168;28;20044;-72
2023/08/03 07:08:47;;;;;;;2.63;0.80;;;;;;;17.56;100.00;96787.03;4190893;28;20084;-73
2023/08/03 07:10:48;;;;;;;3.30;0.70;;;;;;;17.53;100.00;96790.75;4190434;28;20389;-73
2023/08/03 07:12:48;;;;;;;1.38;0.50;;;;;;;17.53;100.00;96801.94;4189404;28;20139;-72
2023/08/03 07:14:48;;;;;;;1.52;0.70;;;;;;;17.41;100.00;96803.63;4190456;28;20193;-72
2023/08/03 07:16:49;;;;;;;3.58;0.75;;;;;;;17.45;100.00;96785.94;4190430;28;20134;-73
2023/08/03 07:18:49;;;;;;;1.88;0.80;;;;;;;17.58;100.00;96800.53;4189870;28;20797;-72
2023/08/03 07:20:49;;;;;;;1.50;0.70;;;;;;;17.57;100.00;96804.59;4189915;28;20482;-73
2023/08/03 07:22:50;;;;;;;1.42;0.60;;;;;;;17.48;100.00;96788.59;4189619;28;20404;-73
2023/08/03 07:24:51;;;;;;;2.58;1.60;;;;;;;17.52;100.00;96802.41;4190269;28;20052;-73
2023/08/03 07:26:51;;;;;;;1.38;0.68;;;;;;;17.56;100.00;96795.41;4190012;28;20037;-73
2023/08/03 07:28:52;;;;;;;1.25;0.70;;;;;;;17.61;100.00;96794.78;4190582;28;20131;-73
2023/08/03 07:30:53;;;;;;;1.67;0.50;;;;;;;17.66;100.00;96794.19;4189947;28;20536;-73
2023/08/03 07:32:53;;;;;;;1.10;0.57;;;;;;;17.66;100.00;96790.59;4189232;28;20175;-73
2023/08/03 07:34:53;;;;;;;3.17;0.60;;;;;;;17.77;100.00;96796.53;4189646;28;20415;-73
2023/08/03 07:36:55;;;;;;;1.38;0.60;;;;;;;17.91;100.00;96798.69;4189188;28;20121;-73
2023/08/03 07:38:55;;;;;;;1.77;0.60;;;;;;;18.06;100.00;96807.25;4189901;28;20041;-73
2023/08/03 07:40:56;;;;;;;1.50;0.60;;;;;;;18.15;100.00;96803.66;4190125;28;20378;-73
2023/08/03 07:42:56;;;;;;;0.68;0.47;;;;;;;18.23;100.00;96799.28;4189231;28;20118;-73
2023/08/03 07:44:56;;;;;;;0.98;0.52;;;;;;;18.09;100.00;96800.69;4189672;28;20044;-73
2023/08/03 07:46:57;;;;;;;2.35;0.70;;;;;;;17.95;100.00;96804.91;4189898;28;20048;-72
2023/08/03 07:48:57;;;;;;;2.22;0.60;;;;;;;17.99;100.00;96806.78;4189406;28;20036;-72
2023/08/03 07:50:58;;;;;;;1.35;0.60;;;;;;;17.95;100.00;96810.50;4189964;28;20036;-73
2023/08/03 07:52:58;;;;;;;1.33;0.55;;;;;;;18.07;100.00;96819.22;4188702;28;20036;-72
2023/08/03 07:54:58;;;;;;;2.30;0.63;;;;;;;18.11;99.82;96826.19;4189871;28;20052;-72
2023/08/03 07:56:59;;;;;;;0.93;0.50;;;;;;;18.16;100.00;96816.41;4189537;28;20415;-72
2023/08/03 07:59:00;;;;;;;1.10;0.63;;;;;;;18.15;100.00;96815.63;4189917;28;20072;-72
2023/08/03 08:01:07;;;;;;;2.70;0.70;;;;;;;18.14;100.00;96816.09;4189633;28;20106;-72
2023/08/03 08:03:08;;;;;;;1.60;0.57;;;;;;;18.11;100.00;96823.38;4188713;28;20036;-73
2023/08/03 08:05:08;;;;;;;1.90;0.70;;;;;;;18.12;100.00;96830.56;4189661;28;20044;-73
2023/08/03 08:07:08;;;;;;;0.75;0.47;;;;;;;18.19;100.00;96830.22;4189277;28;20476;-73
2023/08/03 08:09:09;;;;;;;2.70;0.85;;;;;;;18.27;100.00;96836.28;4189439;28;20044;-73
2023/08/03 08:11:10;;;;;;;0.55;0.45;;;;;;;18.19;99.46;96821.06;4190037;28;20044;-73
2023/08/03 08:13:10;;;;;;;0.85;0.50;;;;;;;18.18;100.00;96830.69;4188565;28;20055;-73
2023/08/03 08:15:11;;;;;;;1.95;0.60;;;;;;;18.40;100.00;96844.50;4189432;28;20052;-73
2023/08/03 08:17:11;;;;;;;2.97;0.50;;;;;;;18.39;99.91;96856.97;4189611;28;20369;-72
2023/08/03 08:19:11;;;;;;;1.73;0.60;;;;;;;18.30;100.00;96854.97;4189216;28;20253;-73
2023/08/03 08:21:12;;;;;;;1.48;0.80;;;;;;;18.29;99.76;96853.41;4188170;28;20041;-73
2023/08/03 08:23:12;;;;;;;1.77;0.60;;;;;;;18.23;99.67;96869.25;4187568;28;20427;-72
2023/08/03 08:25:13;;;;;;;1.45;0.45;;;;;;;18.19;100.00;96869.41;4188962;28;20542;-72
2023/08/03 08:27:16;;;;;;;0.82;0.50;;;;;;;18.13;100.00;96864.94;4189268;28;20392;-73
2023/08/03 08:29:16;;;;;;;2.08;0.60;;;;;;;18.28;100.00;96849.03;4189504;28;20594;-73
2023/08/03 08:31:17;;;;;;;0.75;0.50;;;;;;;18.27;100.00;96858.69;4188888;28;20048;-73
2023/08/03 08:33:18;;;;;;;1.83;0.55;;;;;;;18.32;100.00;96866.47;4188484;28;20036;-73
2023/08/03 08:35:18;;;;;;;1.83;0.70;;;;;;;18.45;100.00;96864.25;4189133;28;20052;-73
2023/08/03 08:37:18;;;;;;;3.50;0.85;;;;;;;18.36;100.00;96855.84;4189174;28;20036;-73
2023/08/03 08:39:19;;;;;;;2.22;0.63;;;;;;;18.56;99.73;96868.59;4189087;28;20070;-72
2023/08/03 08:41:19;;;;;;;3.30;0.70;;;;;;;18.56;99.38;96871.41;4188761;28;20051;-73
2023/08/03 08:43:20;;;;;;;1.60;0.68;;;;;;;18.59;99.09;96881.66;4188622;28;20043;-73
2023/08/03 08:45:20;;;;;;;0.85;0.52;;;;;;;18.60;99.93;96880.41;4189462;28;20079;-73
2023/08/03 08:47:21;;;;;;;1.33;0.50;;;;;;;18.64;99.28;96895.81;4188966;28;20037;-73
2023/08/03 08:49:22;;;;;;;1.02;0.60;;;;;;;18.74;98.60;96899.38;4191368;28;20083;-72
2023/08/03 08:51:22;;;;;;;1.20;0.50;;;;;;;18.77;99.75;96898.44;4192603;28;20392;-73
2023/08/03 08:53:23;;;;;;;1.15;0.65;;;;;;;18.89;98.91;96903.09;4191841;28;20048;-73
2023/08/03 08:55:25;;;;;;;1.45;0.60;;;;;;;18.91;98.95;96906.19;4191504;28;20048;-73
2023/08/03 08:57:26;;;;;;;1.05;0.60;;;;;;;18.91;98.78;96937.00;4192623;28;20051;-73
2023/08/03 08:59:29;;;;;;;1.23;0.75;;;;;;;18.87;98.40;96919.59;4191762;28;20048;-73
2023/08/03 09:01:47;;;;;;;2.30;0.60;;;;;;;18.84;98.39;96930.97;4192580;28;20085;-73
2023/08/03 09:03:49;;;;;;;1.42;0.52;;;;;;;18.73;97.55;96935.03;4191427;28;20041;-73
2023/08/03 09:05:59;;;;;;;0.63;0.50;;;;;;;18.70;99.16;96929.56;4192363;28;20040;-73
2023/08/03 09:08:02;;;;;;;0.88;0.60;;;;;;;18.75;99.65;96942.97;4191581;28;20062;-73
2023/08/03 09:10:03;;;;;;;1.30;0.70;;;;;;;18.64;98.96;96940.63;4191720;28;20040;-73
2023/08/03 09:12:03;;;;;;;2.25;0.60;;;;;;;18.61;99.53;96946.38;4192735;28;20032;-73
2023/08/03 09:14:06;;;;;;;1.90;0.50;;;;;;;18.46;99.61;96957.44;4191270;28;20368;-72
2023/08/03 09:16:22;;;;;;;0.95;0.50;;;;;;;18.52;99.78;96955.56;4191010;28;20064;-73
2023/08/03 09:18:25;;;;;;;1.20;0.60;;;;;;;18.60;100.00;96950.41;4192550;28;20045;-73
2023/08/03 09:20:25;;;;;;;1.83;0.50;;;;;;;18.63;99.55;96957.91;4191994;28;20089;-73
2023/08/03 09:22:26;;;;;;;0.40;0.40;;;;;;;18.66;100.00;96952.16;4191459;28;20044;-73
2023/08/03 09:24:26;;;;;;;2.38;0.63;;;;;;;18.73;98.55;96949.03;4191689;28;20385;-73